Saint Paul, MN

09:19 CDT le 23 septembre 2014 (GMT -0500)
Mounds Park, East Metro | Change Station
CLOSE
Current Station
Stations météorologiques personnelles
Location: Saint Paul, MN
Altitude: 850 ft
Stations météo à proximité

Alt. 850 ft 44.95 °N, 93.06 °W | Updated 59 minutes ago

Clear
Ciel dégagé
54.3 ° F
Paraît 54.3 ° F
N
0.0
Vent Variable Vent de ENE
Gusts 4.0 mph

Aujourd'hui
Haut(e) -- | Bas -- ° F
--% Risque de précip.
Hier
Haut(e) -- | Bas -- ° F
Precip. -- pouce
7:00 AM 7:07 PM
Lune descendante, 0% visible
Pression 30.24 pouce
Visibilité 10.0 Miles terrestres
Nuages Ciel dégagé
Point de rosée 48 ° F
Humidité 80%
Précipitations -999.00 pouce
Profondeur de la couche neigeuse Non disponible.
UV 1 sur 12
Pollen 2.50 sur 12
Ozone Bon
PM2.5 Bon
Flu Activity Non disponible.
METAR KSTP 231353Z 14006KT 10SM CLR 13/11 A3024 RMK AO2 SLP238 T01330106

More Conditions Fewer Conditions

Pression 30.24 pouce
Visibilité 10.0 Miles terrestres
Nuages Ciel dégagé
Point de rosée 48 ° F
Humidité 80%
Précipitations -999.00 pouce
Profondeur de la couche neigeuse Non disponible.
UV 1 sur 12
Pollen 2.50 sur 12
Ozone Bon
PM2.5 Bon
Flu Activity Non disponible.
METAR KSTP 231353Z 14006KT 10SM CLR 13/11 A3024 RMK AO2 SLP238 T01330106

More Conditions Fewer Conditions

10-Day Weather Forecast

Almanac

Astronomie

Sep. 23, 2014 Lever Coucher
Temps réel 07:00 CDT 19:07 CDT
Crépuscule civil 06:31 CDT 19:37 CDT
Crépuscule nautique 05:56 CDT 20:11 CDT
Crépuscule astronomique 05:21 CDT 20:46 CDT
Lune 06:25 CDT 18:46 CDT
Durée de lumière visible 13h 05m
Longueur du jour
12h 07m
Tomorrow will be 3m 7s shorter.
Lune descendante, 0% of the Moon is Illuminated
Aujourd'hui
Lune descendante
Sep 24
Nouveau
Oct 1
Premier quartier
Oct 8
Pleine lune
Oct 15
Dernier quartier

Extrêmes aujourd'hui

State Highs State Lows

Community

WunderPhotos

Upload Photos

1,755,693 Photos téléchargées !

Nearby

Qualité de l'air

  Qualité de l'air Indice de la qualité de l'air Polluant
Hier Bon
OZONE
Hier Bon
PM2.5
Actuel Bon
PM2.5
Actuel Bon
OZONE
mardi Bon
PM2.5
mardi Bon
OZONE
mercredi Moyen
PM2.5
mercredi Bon
OZONE
jeudi Moyen
PM2.5
jeudi Bon
OZONE
vendredi Moyen
PM2.5
vendredi Moyen
OZONE
samedi Moyen
PM2.5
samedi Moyen
OZONE

Épaisseur de neige

Station Depth Altitude
Pas de nouvelles chutes de neige

Activité sismique

Ville Distance Mag. Time & Date
No recent earthquake activity has been reported nearby.
Minimum magnitude displayed is 2.5.

Températures des eaux côtières

Lieu Température
Aucun rapport de station

Stations météo à proximité